Time;durP1;ratioP1;P1;durP2;ratioP2;P2;SDS_P1;SDS_P2;PMS_P1;PMS_P2;Temp;Humidity;BMP_temperature;BMP_pressure;BME280_temperature;BME280_humidity;BME280_pressure;Samples;Min_cycle;Max_cycle;Signal;HPM_P1;HPM_P2
2021/06/09 00:01:01;;;;;;;22.48;20.13;;;19.4;99.9;;;;;;;;;
2021/06/09 00:02:02;;;;;;;21.95;19.48;;;19.4;99.9;;;;;;;;;
2021/06/09 00:03:01;;;;;;;22.5;20.2;;;19.3;99.9;;;;;;;;;
2021/06/09 00:03:16;;;;;;;26.88;19.33;;;19.3;99.9;;;;;;;;;
2021/06/09 00:04:01;;;;;;;26.88;19.33;;;19.3;99.9;;;;;;;;;
2021/06/09 00:04:13;;;;;;;22.17;19.52;;;19.3;99.9;;;;;;;;;
2021/06/09 00:05:01;;;;;;;22.17;19.52;;;19.3;99.9;;;;;;;;;
2021/06/09 00:05:14;;;;;;;22.02;19.7;;;19.2;99.9;;;;;;;;;
2021/06/09 00:05:29;;;;;;;22.02;19.7;;;19.2;99.9;;;;;;;;;
2021/06/09 00:06:01;;;;;;;22.02;19.7;;;19.2;99.9;;;;;;;;;
2021/06/09 00:06:15;;;;;;;21.77;19.58;;;19.2;99.9;;;;;;;;;
2021/06/09 00:06:27;;;;;;;21.77;19.58;;;19.2;99.9;;;;;;;;;
2021/06/09 00:07:02;;;;;;;21.77;19.58;;;19.2;99.9;;;;;;;;;
2021/06/09 00:07:12;;;;;;;22.52;20.13;;;19.1;99.9;;;;;;;;;
2021/06/09 00:07:27;;;;;;;22.52;20.13;;;19.1;99.9;;;;;;;;;
2021/06/09 00:07:42;;;;;;;22.52;20.13;;;19.1;99.9;;;;;;;;;
2021/06/09 00:08:01;;;;;;;22.52;20.13;;;19.1;99.9;;;;;;;;;
2021/06/09 00:08:13;;;;;;;22.77;20.48;;;19.1;99.9;;;;;;;;;
2021/06/09 00:08:29;;;;;;;22.77;20.48;;;19.1;99.9;;;;;;;;;
2021/06/09 00:08:39;;;;;;;22.77;20.48;;;19.1;99.9;;;;;;;;;
2021/06/09 00:09:01;;;;;;;22.77;20.48;;;19.1;99.9;;;;;;;;;
2021/06/09 00:09:15;;;;;;;22.77;20.45;;;19.1;99.9;;;;;;;;;
2021/06/09 00:09:25;;;;;;;22.77;20.45;;;19.1;99.9;;;;;;;;;
2021/06/09 00:09:40;;;;;;;22.77;20.45;;;19.1;99.9;;;;;;;;;
2021/06/09 00:09:56;;;;;;;22.77;20.45;;;19.1;99.9;;;;;;;;;
2021/06/09 00:10:02;;;;;;;22.77;20.45;;;19.1;99.9;;;;;;;;;
2021/06/09 00:10:16;;;;;;;22.58;20.2;;;19.1;99.9;;;;;;;;;
2021/06/09 00:10:26;;;;;;;22.58;20.2;;;19.1;99.9;;;;;;;;;
2021/06/09 00:10:42;;;;;;;22.58;20.2;;;19.1;99.9;;;;;;;;;
2021/06/09 00:10:55;;;;;;;22.58;20.2;;;19.1;99.9;;;;;;;;;
2021/06/09 00:11:02;;;;;;;22.58;20.2;;;19.1;99.9;;;;;;;;;
2021/06/09 00:11:12;;;;;;;22.2;19.85;;;19.1;99.9;;;;;;;;;
2021/06/09 00:11:28;;;;;;;22.2;19.85;;;19.1;99.9;;;;;;;;;
2021/06/09 00:11:38;;;;;;;22.2;19.85;;;19.1;99.9;;;;;;;;;
2021/06/09 00:11:53;;;;;;;22.2;19.85;;;19.1;99.9;;;;;;;;;
2021/06/09 00:12:02;;;;;;;22.2;19.85;;;19.1;99.9;;;;;;;;;
2021/06/09 00:12:09;;;;;;;22.2;19.85;;;19.1;99.9;;;;;;;;;
2021/06/09 00:12:14;;;;;;;23.23;20.8;;;19.1;99.9;;;;;;;;;
2021/06/09 00:12:29;;;;;;;23.23;20.8;;;19.1;99.9;;;;;;;;;
2021/06/09 00:12:39;;;;;;;23.23;20.8;;;19.1;99.9;;;;;;;;;
2021/06/09 00:12:55;;;;;;;23.23;20.8;;;19.1;99.9;;;;;;;;;
2021/06/09 00:13:02;;;;;;;23.23;20.8;;;19.1;99.9;;;;;;;;;
2021/06/09 00:13:05;;;;;;;23.23;20.8;;;19.1;99.9;;;;;;;;;
2021/06/09 00:13:15;;;;;;;21.63;19.38;;;19;99.9;;;;;;;;;
2021/06/09 00:13:26;;;;;;;21.63;19.38;;;19;99.9;;;;;;;;;
2021/06/09 00:13:41;;;;;;;21.63;19.38;;;19;99.9;;;;;;;;;
2021/06/09 00:13:51;;;;;;;21.63;19.38;;;19;99.9;;;;;;;;;
2021/06/09 00:14:02;;;;;;;21.63;19.38;;;19;99.9;;;;;;;;;
2021/06/09 00:14:06;;;;;;;21.63;19.38;;;19;99.9;;;;;;;;;
2021/06/09 00:14:18;;;;;;;23.52;20.75;;;18.9;99.9;;;;;;;;;
2021/06/09 00:14:27;;;;;;;23.52;20.75;;;18.9;99.9;;;;;;;;;
2021/06/09 00:14:42;;;;;;;23.52;20.75;;;18.9;99.9;;;;;;;;;
2021/06/09 00:14:53;;;;;;;23.52;20.75;;;18.9;99.9;;;;;;;;;
2021/06/09 00:15:01;;;;;;;23.52;20.75;;;18.9;99.9;;;;;;;;;
2021/06/09 00:15:08;;;;;;;23.52;20.75;;;18.9;99.9;;;;;;;;;
2021/06/09 00:15:13;;;;;;;22.52;19.08;;;18.9;99.9;;;;;;;;;
2021/06/09 00:15:28;;;;;;;22.52;19.08;;;18.9;99.9;;;;;;;;;
2021/06/09 00:15:39;;;;;;;22.52;19.08;;;18.9;99.9;;;;;;;;;
2021/06/09 00:15:55;;;;;;;22.52;19.08;;;18.9;99.9;;;;;;;;;
2021/06/09 00:16:02;;;;;;;22.52;19.08;;;18.9;99.9;;;;;;;;;
2021/06/09 00:16:04;;;;;;;22.52;19.08;;;18.9;99.9;;;;;;;;;
2021/06/09 00:16:15;;;;;;;23.25;20.35;;;18.9;99.9;;;;;;;;;
2021/06/09 00:16:30;;;;;;;23.25;20.35;;;18.9;99.9;;;;;;;;;
2021/06/09 00:16:40;;;;;;;23.25;20.35;;;18.9;99.9;;;;;;;;;
2021/06/09 00:16:55;;;;;;;23.25;20.35;;;18.9;99.9;;;;;;;;;
2021/06/09 00:17:02;;;;;;;23.25;20.35;;;18.9;99.9;;;;;;;;;
2021/06/09 00:17:06;;;;;;;23.25;20.35;;;18.9;99.9;;;;;;;;;
2021/06/09 00:17:16;;;;;;;22.55;20.1;;;18.9;99.9;;;;;;;;;
2021/06/09 00:17:26;;;;;;;22.55;20.1;;;18.9;99.9;;;;;;;;;
2021/06/09 00:17:42;;;;;;;22.55;20.1;;;18.9;99.9;;;;;;;;;
2021/06/09 00:17:52;;;;;;;22.55;20.1;;;18.9;99.9;;;;;;;;;
2021/06/09 00:18:02;;;;;;;22.55;20.1;;;18.9;99.9;;;;;;;;;
2021/06/09 00:18:07;;;;;;;22.55;20.1;;;18.9;99.9;;;;;;;;;
2021/06/09 00:18:17;;;;;;;24.9;20.23;;;18.9;99.9;;;;;;;;;
2021/06/09 00:18:28;;;;;;;24.9;20.23;;;18.9;99.9;;;;;;;;;
2021/06/09 00:18:43;;;;;;;24.9;20.23;;;18.9;99.9;;;;;;;;;
2021/06/09 00:18:53;;;;;;;24.9;20.23;;;18.9;99.9;;;;;;;;;
2021/06/09 00:19:02;;;;;;;24.9;20.23;;;18.9;99.9;;;;;;;;;
2021/06/09 00:19:09;;;;;;;24.9;20.23;;;18.9;99.9;;;;;;;;;
2021/06/09 00:19:14;;;;;;;24.02;19.67;;;18.8;99.9;;;;;;;;;
2021/06/09 00:19:29;;;;;;;24.02;19.67;;;18.8;99.9;;;;;;;;;
2021/06/09 00:19:39;;;;;;;24.02;19.67;;;18.8;99.9;;;;;;;;;
2021/06/09 00:19:55;;;;;;;24.02;19.67;;;18.8;99.9;;;;;;;;;
2021/06/09 00:20:01;;;;;;;24.02;19.67;;;18.8;99.9;;;;;;;;;
2021/06/09 00:20:05;;;;;;;24.02;19.67;;;18.8;99.9;;;;;;;;;
2021/06/09 00:20:15;;;;;;;23.8;21.3;;;18.8;99.9;;;;;;;;;
2021/06/09 00:20:31;;;;;;;23.8;21.3;;;18.8;99.9;;;;;;;;;
2021/06/09 00:20:41;;;;;;;23.8;21.3;;;18.8;99.9;;;;;;;;;
2021/06/09 00:20:56;;;;;;;23.8;21.3;;;18.8;99.9;;;;;;;;;
2021/06/09 00:21:02;;;;;;;23.8;21.3;;;18.8;99.9;;;;;;;;;
2021/06/09 00:21:06;;;;;;;23.8;21.3;;;18.8;99.9;;;;;;;;;
2021/06/09 00:21:17;;;;;;;24.77;21.52;;;18.8;99.9;;;;;;;;;
2021/06/09 00:21:27;;;;;;;24.77;21.52;;;18.8;99.9;;;;;;;;;
2021/06/09 00:21:47;;;;;;;24.77;21.52;;;18.8;99.9;;;;;;;;;
2021/06/09 00:21:52;;;;;;;24.77;21.52;;;18.8;99.9;;;;;;;;;
2021/06/09 00:22:01;;;;;;;24.77;21.52;;;18.8;99.9;;;;;;;;;
2021/06/09 00:22:08;;;;;;;24.77;21.52;;;18.8;99.9;;;;;;;;;
2021/06/09 00:22:13;;;;;;;24.77;21.52;;;18.8;99.9;;;;;;;;;
2021/06/09 00:22:33;;;;;;;23.42;20.75;;;18.8;99.9;;;;;;;;;
2021/06/09 00:22:44;;;;;;;23.42;20.75;;;18.8;99.9;;;;;;;;;
2021/06/09 00:22:54;;;;;;;23.42;20.75;;;18.8;99.9;;;;;;;;;
2021/06/09 00:23:02;;;;;;;23.42;20.75;;;18.8;99.9;;;;;;;;;
2021/06/09 00:23:11;;;;;;;23.42;20.75;;;18.8;99.9;;;;;;;;;
2021/06/09 00:23:17;;;;;;;23.42;20.75;;;18.8;99.9;;;;;;;;;
2021/06/09 00:23:30;;;;;;;24.5;20.85;;;18.8;99.9;;;;;;;;;
2021/06/09 00:23:40;;;;;;;24.5;20.85;;;18.8;99.9;;;;;;;;;
2021/06/09 00:24:00;;;;;;;24.5;20.85;;;18.8;99.9;;;;;;;;;
2021/06/09 00:24:02;;;;;;;24.5;20.85;;;18.8;99.9;;;;;;;;;
2021/06/09 00:24:06;;;;;;;24.5;20.85;;;18.8;99.9;;;;;;;;;
2021/06/09 00:24:16;;;;;;;24.83;21.33;;;18.8;99.9;;;;;;;;;
2021/06/09 00:24:26;;;;;;;24.83;21.33;;;18.8;99.9;;;;;;;;;
2021/06/09 00:24:46;;;;;;;24.83;21.33;;;18.8;99.9;;;;;;;;;
2021/06/09 00:24:57;;;;;;;24.83;21.33;;;18.8;99.9;;;;;;;;;
2021/06/09 00:25:01;;;;;;;24.83;21.33;;;18.8;99.9;;;;;;;;;
2021/06/09 00:25:13;;;;;;;24.83;21.33;;;18.8;99.9;;;;;;;;;
2021/06/09 00:25:15;;;;;;;24.83;21.33;;;18.8;99.9;;;;;;;;;
2021/06/09 00:25:27;;;;;;;23.05;20.7;;;18.8;99.9;;;;;;;;;
2021/06/09 00:25:48;;;;;;;23.05;20.7;;;18.8;99.9;;;;;;;;;
2021/06/09 00:25:54;;;;;;;23.05;20.7;;;18.8;99.9;;;;;;;;;
2021/06/09 00:26:04;;;;;;;23.05;20.7;;;18.8;99.9;;;;;;;;;
2021/06/09 00:26:16;;;;;;;23.05;20.7;;;18.8;99.9;;;;;;;;;
2021/06/09 00:26:16;;;;;;;23.05;20.7;;;18.8;99.9;;;;;;;;;
2021/06/09 00:26:29;;;;;;;23.17;20.8;;;18.7;99.9;;;;;;;;;
2021/06/09 00:26:39;;;;;;;23.17;20.8;;;18.7;99.9;;;;;;;;;
2021/06/09 00:27:00;;;;;;;23.17;20.8;;;18.7;99.9;;;;;;;;;
2021/06/09 00:27:02;;;;;;;23.17;20.8;;;18.7;99.9;;;;;;;;;
2021/06/09 00:27:10;;;;;;;23.17;20.8;;;18.7;99.9;;;;;;;;;
2021/06/09 00:27:15;;;;;;;23.17;20.8;;;18.7;99.9;;;;;;;;;
2021/06/09 00:27:26;;;;;;;24.02;21.6;;;18.8;99.9;;;;;;;;;
2021/06/09 00:27:41;;;;;;;24.02;21.6;;;18.8;99.9;;;;;;;;;
2021/06/09 00:28:01;;;;;;;24.02;21.6;;;18.8;99.9;;;;;;;;;
2021/06/09 00:28:02;;;;;;;24.02;21.6;;;18.8;99.9;;;;;;;;;
2021/06/09 00:28:06;;;;;;;24.02;21.6;;;18.8;99.9;;;;;;;;;
2021/06/09 00:28:16;;;;;;;23.02;20.7;;;18.8;99.9;;;;;;;;;
2021/06/09 00:28:27;;;;;;;23.02;20.7;;;18.8;99.9;;;;;;;;;
2021/06/09 00:28:42;;;;;;;23.02;20.7;;;18.8;99.9;;;;;;;;;
2021/06/09 00:28:52;;;;;;;23.02;20.7;;;18.8;99.9;;;;;;;;;
2021/06/09 00:29:02;;;;;;;23.02;20.7;;;18.8;99.9;;;;;;;;;
2021/06/09 00:29:13;;;;;;;23.02;20.7;;;18.8;99.9;;;;;;;;;
2021/06/09 00:29:18;;;;;;;22.45;19.83;;;18.8;99.9;;;;;;;;;
2021/06/09 00:29:28;;;;;;;22.45;19.83;;;18.8;99.9;;;;;;;;;
2021/06/09 00:29:38;;;;;;;22.45;19.83;;;18.8;99.9;;;;;;;;;
2021/06/09 00:29:54;;;;;;;22.45;19.83;;;18.8;99.9;;;;;;;;;
2021/06/09 00:30:01;;;;;;;22.45;19.83;;;18.8;99.9;;;;;;;;;
2021/06/09 00:30:14;;;;;;;22.45;19.83;;;18.8;99.9;;;;;;;;;
2021/06/09 00:30:14;;;;;;;22.45;19.83;;;18.8;99.9;;;;;;;;;
2021/06/09 00:30:30;;;;;;;23.35;20.83;;;18.8;99.9;;;;;;;;;
2021/06/09 00:30:40;;;;;;;23.35;20.83;;;18.8;99.9;;;;;;;;;
2021/06/09 00:30:55;;;;;;;23.35;20.83;;;18.8;99.9;;;;;;;;;
2021/06/09 00:31:02;;;;;;;23.35;20.83;;;18.8;99.9;;;;;;;;;
2021/06/09 00:31:05;;;;;;;23.35;20.83;;;18.8;99.9;;;;;;;;;
2021/06/09 00:31:16;;;;;;;23.35;20.83;;;18.8;99.9;;;;;;;;;
2021/06/09 00:31:31;;;;;;;22.73;20.35;;;18.8;99.9;;;;;;;;;
2021/06/09 00:31:41;;;;;;;22.73;20.35;;;18.8;99.9;;;;;;;;;
2021/06/09 00:31:51;;;;;;;22.73;20.35;;;18.8;99.9;;;;;;;;;
2021/06/09 00:32:02;;;;;;;22.73;20.35;;;18.8;99.9;;;;;;;;;
2021/06/09 00:32:07;;;;;;;22.73;20.35;;;18.8;99.9;;;;;;;;;
2021/06/09 00:32:17;;;;;;;22.73;20.35;;;18.8;99.9;;;;;;;;;
2021/06/09 00:32:27;;;;;;;24.65;21.6;;;18.8;99.9;;;;;;;;;
2021/06/09 00:32:43;;;;;;;24.65;21.6;;;18.8;99.9;;;;;;;;;
2021/06/09 00:32:53;;;;;;;24.65;21.6;;;18.8;99.9;;;;;;;;;
2021/06/09 00:33:02;;;;;;;24.65;21.6;;;18.8;99.9;;;;;;;;;
2021/06/09 00:33:08;;;;;;;24.65;21.6;;;18.8;99.9;;;;;;;;;
2021/06/09 00:33:13;;;;;;;24.65;21.6;;;18.8;99.9;;;;;;;;;
2021/06/09 00:33:29;;;;;;;26.05;22.67;;;18.8;99.9;;;;;;;;;
2021/06/09 00:33:44;;;;;;;26.05;22.67;;;18.8;99.9;;;;;;;;;
2021/06/09 00:33:54;;;;;;;26.05;22.67;;;18.8;99.9;;;;;;;;;
2021/06/09 00:34:02;;;;;;;26.05;22.67;;;18.8;99.9;;;;;;;;;
2021/06/09 00:34:05;;;;;;;26.05;22.67;;;18.8;99.9;;;;;;;;;
2021/06/09 00:34:15;;;;;;;26.05;22.67;;;18.8;99.9;;;;;;;;;
2021/06/09 00:34:30;;;;;;;26.25;22.42;;;18.8;99.9;;;;;;;;;
2021/06/09 00:34:40;;;;;;;26.25;22.42;;;18.8;99.9;;;;;;;;;
2021/06/09 00:34:56;;;;;;;26.25;22.42;;;18.8;99.9;;;;;;;;;
2021/06/09 00:35:01;;;;;;;26.25;22.42;;;18.8;99.9;;;;;;;;;
2021/06/09 00:35:06;;;;;;;26.25;22.42;;;18.8;99.9;;;;;;;;;
2021/06/09 00:35:16;;;;;;;26.25;22.42;;;18.8;99.9;;;;;;;;;
2021/06/09 00:35:26;;;;;;;24.1;21.6;;;18.8;99.9;;;;;;;;;
2021/06/09 00:35:42;;;;;;;24.1;21.6;;;18.8;99.9;;;;;;;;;
2021/06/09 00:35:58;;;;;;;24.1;21.6;;;18.8;99.9;;;;;;;;;
2021/06/09 00:36:02;;;;;;;24.1;21.6;;;18.8;99.9;;;;;;;;;
2021/06/09 00:36:07;;;;;;;24.1;21.6;;;18.8;99.9;;;;;;;;;
2021/06/09 00:36:13;;;;;;;24.1;21.6;;;18.8;99.9;;;;;;;;;
2021/06/09 00:36:28;;;;;;;25.5;22.17;;;18.7;99.9;;;;;;;;;
2021/06/09 00:36:43;;;;;;;25.5;22.17;;;18.7;99.9;;;;;;;;;
2021/06/09 00:36:54;;;;;;;25.5;22.17;;;18.7;99.9;;;;;;;;;
2021/06/09 00:37:01;;;;;;;25.5;22.17;;;18.7;99.9;;;;;;;;;
2021/06/09 00:37:09;;;;;;;25.5;22.17;;;18.7;99.9;;;;;;;;;
2021/06/09 00:37:14;;;;;;;25.5;22.17;;;18.7;99.9;;;;;;;;;
2021/06/09 00:37:29;;;;;;;26.15;22.5;;;18.7;99.9;;;;;;;;;
2021/06/09 00:37:40;;;;;;;26.15;22.5;;;18.7;99.9;;;;;;;;;
2021/06/09 00:37:55;;;;;;;26.15;22.5;;;18.7;99.9;;;;;;;;;
2021/06/09 00:38:02;;;;;;;26.15;22.5;;;18.7;99.9;;;;;;;;;
2021/06/09 00:38:11;;;;;;;26.15;22.5;;;18.7;99.9;;;;;;;;;
2021/06/09 00:38:15;;;;;;;26.15;22.5;;;18.7;99.9;;;;;;;;;
2021/06/09 00:38:26;;;;;;;24.92;21.45;;;18.7;99.9;;;;;;;;;
2021/06/09 00:38:41;;;;;;;24.92;21.45;;;18.7;99.9;;;;;;;;;
2021/06/09 00:38:56;;;;;;;24.92;21.45;;;18.7;99.9;;;;;;;;;
2021/06/09 00:39:02;;;;;;;24.92;21.45;;;18.7;99.9;;;;;;;;;
2021/06/09 00:39:07;;;;;;;24.92;21.45;;;18.7;99.9;;;;;;;;;
2021/06/09 00:39:17;;;;;;;24.92;21.45;;;18.7;99.9;;;;;;;;;
2021/06/09 00:39:27;;;;;;;24.25;21.52;;;18.6;99.9;;;;;;;;;
2021/06/09 00:39:43;;;;;;;24.25;21.52;;;18.6;99.9;;;;;;;;;
2021/06/09 00:39:53;;;;;;;24.25;21.52;;;18.6;99.9;;;;;;;;;
2021/06/09 00:40:02;;;;;;;24.25;21.52;;;18.6;99.9;;;;;;;;;
2021/06/09 00:40:08;;;;;;;24.25;21.52;;;18.6;99.9;;;;;;;;;
2021/06/09 00:40:13;;;;;;;24.25;21.52;;;18.6;99.9;;;;;;;;;
2021/06/09 00:40:29;;;;;;;24.58;21.75;;;18.6;99.9;;;;;;;;;
2021/06/09 00:40:39;;;;;;;24.58;21.75;;;18.6;99.9;;;;;;;;;
2021/06/09 00:40:54;;;;;;;24.58;21.75;;;18.6;99.9;;;;;;;;;
2021/06/09 00:41:02;;;;;;;24.58;21.75;;;18.6;99.9;;;;;;;;;
2021/06/09 00:41:10;;;;;;;24.58;21.75;;;18.6;99.9;;;;;;;;;
2021/06/09 00:41:15;;;;;;;24.58;21.75;;;18.6;99.9;;;;;;;;;
2021/06/09 00:41:30;;;;;;;23.98;20.77;;;18.6;99.9;;;;;;;;;
2021/06/09 00:41:40;;;;;;;23.98;20.77;;;18.6;99.9;;;;;;;;;
2021/06/09 00:41:56;;;;;;;23.98;20.77;;;18.6;99.9;;;;;;;;;
2021/06/09 00:42:01;;;;;;;23.98;20.77;;;18.6;99.9;;;;;;;;;
2021/06/09 00:42:06;;;;;;;23.98;20.77;;;18.6;99.9;;;;;;;;;
2021/06/09 00:42:16;;;;;;;23.98;20.77;;;18.6;99.9;;;;;;;;;
2021/06/09 00:42:26;;;;;;;25.4;21.7;;;18.6;99.9;;;;;;;;;
2021/06/09 00:42:42;;;;;;;25.4;21.7;;;18.6;99.9;;;;;;;;;
2021/06/09 00:42:52;;;;;;;25.4;21.7;;;18.6;99.9;;;;;;;;;
2021/06/09 00:43:02;;;;;;;25.4;21.7;;;18.6;99.9;;;;;;;;;
2021/06/09 00:43:07;;;;;;;25.4;21.7;;;18.6;99.9;;;;;;;;;
2021/06/09 00:43:12;;;;;;;25.4;21.7;;;18.6;99.9;;;;;;;;;
2021/06/09 00:43:28;;;;;;;25.13;22.35;;;18.6;99.9;;;;;;;;;
2021/06/09 00:43:43;;;;;;;25.13;22.35;;;18.6;99.9;;;;;;;;;
2021/06/09 00:43:53;;;;;;;25.13;22.35;;;18.6;99.9;;;;;;;;;
2021/06/09 00:44:02;;;;;;;25.13;22.35;;;18.6;99.9;;;;;;;;;
2021/06/09 00:44:09;;;;;;;25.13;22.35;;;18.6;99.9;;;;;;;;;
2021/06/09 00:44:14;;;;;;;25.13;22.35;;;18.6;99.9;;;;;;;;;
2021/06/09 00:44:30;;;;;;;23;20.48;;;18.7;99.9;;;;;;;;;
2021/06/09 00:44:39;;;;;;;23;20.48;;;18.7;99.9;;;;;;;;;
2021/06/09 00:45:01;;;;;;;23;20.48;;;18.7;99.9;;;;;;;;;
2021/06/09 00:45:15;;;;;;;23;20.48;;;18.7;99.9;;;;;;;;;
2021/06/09 00:45:15;;;;;;;23;20.48;;;18.7;99.9;;;;;;;;;
2021/06/09 00:45:20;;;;;;;23;20.48;;;18.7;99.9;;;;;;;;;
2021/06/09 00:45:26;;;;;;;23.27;20.73;;;18.7;99.9;;;;;;;;;
2021/06/09 00:45:41;;;;;;;23.27;20.73;;;18.7;99.9;;;;;;;;;
2021/06/09 00:45:56;;;;;;;23.27;20.73;;;18.7;99.9;;;;;;;;;
2021/06/09 00:46:02;;;;;;;23.27;20.73;;;18.7;99.9;;;;;;;;;
2021/06/09 00:46:07;;;;;;;23.27;20.73;;;18.7;99.9;;;;;;;;;
2021/06/09 00:46:17;;;;;;;23.27;20.73;;;18.7;99.9;;;;;;;;;
2021/06/09 00:46:27;;;;;;;23.92;21.42;;;18.7;99.9;;;;;;;;;
2021/06/09 00:46:43;;;;;;;23.92;21.42;;;18.7;99.9;;;;;;;;;
2021/06/09 00:46:53;;;;;;;23.92;21.42;;;18.7;99.9;;;;;;;;;
2021/06/09 00:47:01;;;;;;;23.92;21.42;;;18.7;99.9;;;;;;;;;
2021/06/09 00:47:13;;;;;;;23.92;21.42;;;18.7;99.9;;;;;;;;;
2021/06/09 00:47:28;;;;;;;24.55;21.88;;;18.7;99.9;;;;;;;;;
2021/06/09 00:47:28;;;;;;;24.55;21.88;;;18.7;99.9;;;;;;;;;
2021/06/09 00:47:39;;;;;;;24.55;21.88;;;18.7;99.9;;;;;;;;;
2021/06/09 00:47:54;;;;;;;24.55;21.88;;;18.7;99.9;;;;;;;;;
2021/06/09 00:48:02;;;;;;;24.55;21.88;;;18.7;99.9;;;;;;;;;
2021/06/09 00:48:09;;;;;;;24.55;21.88;;;18.7;99.9;;;;;;;;;
2021/06/09 00:48:15;;;;;;;24.55;21.88;;;18.7;99.9;;;;;;;;;
2021/06/09 00:48:30;;;;;;;26.35;22.1;;;18.7;99.9;;;;;;;;;
2021/06/09 00:48:45;;;;;;;26.35;22.1;;;18.7;99.9;;;;;;;;;
2021/06/09 00:48:55;;;;;;;26.35;22.1;;;18.7;99.9;;;;;;;;;
2021/06/09 00:49:02;;;;;;;26.35;22.1;;;18.7;99.9;;;;;;;;;
2021/06/09 00:49:06;;;;;;;26.35;22.1;;;18.7;99.9;;;;;;;;;
2021/06/09 00:49:16;;;;;;;26.35;22.1;;;18.7;99.9;;;;;;;;;
2021/06/09 00:49:31;;;;;;;25.77;22.58;;;18.7;99.9;;;;;;;;;
2021/06/09 00:49:41;;;;;;;25.77;22.58;;;18.7;99.9;;;;;;;;;
2021/06/09 00:49:52;;;;;;;25.77;22.58;;;18.7;99.9;;;;;;;;;
2021/06/09 00:50:02;;;;;;;25.77;22.58;;;18.7;99.9;;;;;;;;;
2021/06/09 00:50:07;;;;;;;25.77;22.58;;;18.7;99.9;;;;;;;;;
2021/06/09 00:50:17;;;;;;;25.77;22.58;;;18.7;99.9;;;;;;;;;
2021/06/09 00:50:28;;;;;;;25.88;22.75;;;18.7;99.9;;;;;;;;;
2021/06/09 00:50:43;;;;;;;25.88;22.75;;;18.7;99.9;;;;;;;;;
2021/06/09 00:50:59;;;;;;;25.88;22.75;;;18.7;99.9;;;;;;;;;
2021/06/09 00:51:02;;;;;;;25.88;22.75;;;18.7;99.9;;;;;;;;;
2021/06/09 00:51:10;;;;;;;25.88;22.75;;;18.7;99.9;;;;;;;;;
2021/06/09 00:51:16;;;;;;;25.88;22.75;;;18.7;99.9;;;;;;;;;
2021/06/09 00:51:29;;;;;;;25.42;22.27;;;18.7;99.9;;;;;;;;;
2021/06/09 00:51:44;;;;;;;25.42;22.27;;;18.7;99.9;;;;;;;;;
2021/06/09 00:51:55;;;;;;;25.42;22.27;;;18.7;99.9;;;;;;;;;
2021/06/09 00:52:01;;;;;;;25.42;22.27;;;18.7;99.9;;;;;;;;;
2021/06/09 00:52:05;;;;;;;25.42;22.27;;;18.7;99.9;;;;;;;;;
2021/06/09 00:52:15;;;;;;;25.42;22.27;;;18.7;99.9;;;;;;;;;
2021/06/09 00:52:30;;;;;;;26.48;22.52;;;18.8;99.9;;;;;;;;;
2021/06/09 00:52:41;;;;;;;26.48;22.52;;;18.8;99.9;;;;;;;;;
2021/06/09 00:53:27;;;;;;;26.48;22.52;;;18.8;99.9;;;;;;;;;
2021/06/09 00:53:27;;;;;;;26.48;22.52;;;18.8;99.9;;;;;;;;;
2021/06/09 00:53:27;;;;;;;23.9;21.4;;;18.8;99.9;;;;;;;;;
2021/06/09 00:53:33;;;;;;;26.48;22.52;;;18.8;99.9;;;;;;;;;
2021/06/09 00:53:35;;;;;;;26.48;22.52;;;18.8;99.9;;;;;;;;;
2021/06/09 00:53:48;;;;;;;23.9;21.4;;;18.8;99.9;;;;;;;;;
2021/06/09 00:54:01;;;;;;;23.9;21.4;;;18.8;99.9;;;;;;;;;
2021/06/09 00:54:03;;;;;;;23.9;21.4;;;18.8;99.9;;;;;;;;;
2021/06/09 00:54:08;;;;;;;23.9;21.4;;;18.8;99.9;;;;;;;;;
2021/06/09 00:54:13;;;;;;;23.9;21.4;;;18.8;99.9;;;;;;;;;
2021/06/09 00:54:28;;;;;;;25.5;22.7;;;18.8;99.9;;;;;;;;;
2021/06/09 00:54:44;;;;;;;25.5;22.7;;;18.8;99.9;;;;;;;;;
2021/06/09 00:54:54;;;;;;;25.5;22.7;;;18.8;99.9;;;;;;;;;
2021/06/09 00:55:02;;;;;;;25.5;22.7;;;18.8;99.9;;;;;;;;;
2021/06/09 00:55:40;;;;;;;26.75;22.73;;;18.8;99.9;;;;;;;;;
2021/06/09 00:55:40;;;;;;;26.75;22.73;;;18.8;99.9;;;;;;;;;
2021/06/09 00:55:45;;;;;;;26.75;22.73;;;18.8;99.9;;;;;;;;;
2021/06/09 00:55:50;;;;;;;26.75;22.73;;;18.8;99.9;;;;;;;;;
2021/06/09 00:56:00;;;;;;;26.75;22.73;;;18.8;99.9;;;;;;;;;
2021/06/09 00:56:02;;;;;;;26.75;22.73;;;18.8;99.9;;;;;;;;;
2021/06/09 00:56:16;;;;;;;26.75;22.73;;;18.8;99.9;;;;;;;;;
2021/06/09 00:56:16;;;;;;;26.75;22.73;;;18.8;99.9;;;;;;;;;
2021/06/09 00:56:26;;;;;;;28.17;23.02;;;18.9;99.9;;;;;;;;;
2021/06/09 00:56:41;;;;;;;28.17;23.02;;;18.9;99.9;;;;;;;;;
2021/06/09 00:56:57;;;;;;;28.17;23.02;;;18.9;99.9;;;;;;;;;
2021/06/09 00:57:01;;;;;;;28.17;23.02;;;18.9;99.9;;;;;;;;;
2021/06/09 00:57:07;;;;;;;28.17;23.02;;;18.9;99.9;;;;;;;;;
2021/06/09 00:57:12;;;;;;;28.17;23.02;;;18.9;99.9;;;;;;;;;
2021/06/09 00:57:53;;;;;;;26.33;22.35;;;18.9;99.9;;;;;;;;;
2021/06/09 00:57:58;;;;;;;26.33;22.35;;;18.9;99.9;;;;;;;;;
2021/06/09 00:58:02;;;;;;;26.33;22.35;;;18.9;99.9;;;;;;;;;
2021/06/09 00:58:03;;;;;;;26.33;22.35;;;18.9;99.9;;;;;;;;;
2021/06/09 00:58:14;;;;;;;26.33;22.35;;;18.9;99.9;;;;;;;;;
2021/06/09 00:58:14;;;;;;;26.33;22.35;;;18.9;99.9;;;;;;;;;
2021/06/09 00:58:29;;;;;;;26.4;22.55;;;19;99.9;;;;;;;;;
2021/06/09 00:58:39;;;;;;;26.4;22.55;;;19;99.9;;;;;;;;;
2021/06/09 00:58:54;;;;;;;26.4;22.55;;;19;99.9;;;;;;;;;
2021/06/09 00:59:01;;;;;;;26.4;22.55;;;19;99.9;;;;;;;;;
2021/06/09 00:59:10;;;;;;;26.4;22.55;;;19;99.9;;;;;;;;;
2021/06/09 00:59:15;;;;;;;26.4;22.55;;;19;99.9;;;;;;;;;
2021/06/09 00:59:25;;;;;;;26.4;22.55;;;19;99.9;;;;;;;;;
2021/06/09 01:00:02;;;;;;;23.75;21.25;;;19;99.9;;;;;;;;;
2021/06/09 01:00:06;;;;;;;23.75;21.25;;;19;99.9;;;;;;;;;
2021/06/09 01:00:11;;;;;;;23.75;21.25;;;19;99.9;;;;;;;;;
2021/06/09 01:00:16;;;;;;;23.75;21.25;;;19;99.9;;;;;;;;;
2021/06/09 01:00:16;;;;;;;23.75;21.25;;;19;99.9;;;;;;;;;
2021/06/09 01:00:27;;;;;;;27.85;22.08;;;19;99.9;;;;;;;;;
2021/06/09 01:00:42;;;;;;;27.85;22.08;;;19;99.9;;;;;;;;;
2021/06/09 01:00:52;;;;;;;27.85;22.08;;;19;99.9;;;;;;;;;
2021/06/09 01:01:02;;;;;;;27.85;22.08;;;19;99.9;;;;;;;;;
2021/06/09 01:01:08;;;;;;;27.85;22.08;;;19;99.9;;;;;;;;;
2021/06/09 01:01:13;;;;;;;27.85;22.08;;;19;99.9;;;;;;;;;
2021/06/09 01:01:28;;;;;;;24.98;22.38;;;19;99.9;;;;;;;;;
2021/06/09 01:01:38;;;;;;;24.98;22.38;;;19;99.9;;;;;;;;;
2021/06/09 01:02:02;;;;;;;24.98;22.38;;;19;99.9;;;;;;;;;
2021/06/09 01:02:19;;;;;;;24.98;22.38;;;19;99.9;;;;;;;;;
2021/06/09 01:02:24;;;;;;;24.98;22.38;;;19;99.9;;;;;;;;;
2021/06/09 01:02:30;;;;;;;24.4;21.5;;;19;99.9;;;;;;;;;
2021/06/09 01:02:30;;;;;;;24.4;21.5;;;19;99.9;;;;;;;;;
2021/06/09 01:02:40;;;;;;;24.4;21.5;;;19;99.9;;;;;;;;;
2021/06/09 01:02:55;;;;;;;24.4;21.5;;;19;99.9;;;;;;;;;
2021/06/09 01:03:02;;;;;;;24.4;21.5;;;19;99.9;;;;;;;;;
2021/06/09 01:03:05;;;;;;;24.4;21.5;;;19;99.9;;;;;;;;;
2021/06/09 01:03:16;;;;;;;24.4;21.5;;;19;99.9;;;;;;;;;
2021/06/09 01:03:26;;;;;;;24.4;21.5;;;19;99.9;;;;;;;;;
2021/06/09 01:03:41;;;;;;;23.88;21.38;;;18.9;99.9;;;;;;;;;
2021/06/09 01:03:52;;;;;;;23.88;21.38;;;18.9;99.9;;;;;;;;;
2021/06/09 01:04:02;;;;;;;23.88;21.38;;;18.9;99.9;;;;;;;;;
2021/06/09 01:04:17;;;;;;;23.88;21.38;;;18.9;99.9;;;;;;;;;
2021/06/09 01:04:32;;;;;;;24.5;21.9;;;18.9;99.9;;;;;;;;;
2021/06/09 01:04:43;;;;;;;24.5;21.9;;;18.9;99.9;;;;;;;;;
2021/06/09 01:04:43;;;;;;;24.5;21.9;;;18.9;99.9;;;;;;;;;
2021/06/09 01:04:53;;;;;;;24.5;21.9;;;18.9;99.9;;;;;;;;;
2021/06/09 01:05:02;;;;;;;24.5;21.9;;;18.9;99.9;;;;;;;;;
2021/06/09 01:05:08;;;;;;;24.5;21.9;;;18.9;99.9;;;;;;;;;
2021/06/09 01:05:13;;;;;;;24.5;21.9;;;18.9;99.9;;;;;;;;;
2021/06/09 01:05:29;;;;;;;25.02;22.27;;;18.9;99.9;;;;;;;;;
2021/06/09 01:05:39;;;;;;;25.02;22.27;;;18.9;99.9;;;;;;;;;
2021/06/09 01:05:54;;;;;;;25.02;22.27;;;18.9;99.9;;;;;;;;;
2021/06/09 01:06:02;;;;;;;25.02;22.27;;;18.9;99.9;;;;;;;;;
2021/06/09 01:06:05;;;;;;;25.02;22.27;;;18.9;99.9;;;;;;;;;
2021/06/09 01:06:15;;;;;;;25.02;22.27;;;18.9;99.9;;;;;;;;;
2021/06/09 01:06:30;;;;;;;25.55;22.75;;;18.9;99.9;;;;;;;;;
2021/06/09 01:06:46;;;;;;;25.55;22.75;;;18.9;99.9;;;;;;;;;
2021/06/09 01:06:56;;;;;;;25.55;22.75;;;18.9;99.9;;;;;;;;;
2021/06/09 01:07:02;;;;;;;25.55;22.75;;;18.9;99.9;;;;;;;;;
2021/06/09 01:07:08;;;;;;;25.55;22.75;;;18.9;99.9;;;;;;;;;
2021/06/09 01:07:17;;;;;;;25.55;22.75;;;18.9;99.9;;;;;;;;;
2021/06/09 01:07:27;;;;;;;25.55;22.75;;;18.9;99.9;;;;;;;;;
2021/06/09 01:07:42;;;;;;;24.77;21.63;;;19;99.9;;;;;;;;;
2021/06/09 01:07:52;;;;;;;24.77;21.63;;;19;99.9;;;;;;;;;
2021/06/09 01:08:02;;;;;;;24.77;21.63;;;19;99.9;;;;;;;;;
2021/06/09 01:08:08;;;;;;;24.77;21.63;;;19;99.9;;;;;;;;;
2021/06/09 01:08:18;;;;;;;24.77;21.63;;;19;99.9;;;;;;;;;
2021/06/09 01:08:28;;;;;;;24.77;21.63;;;19;99.9;;;;;;;;;
2021/06/09 01:08:43;;;;;;;27.45;22.23;;;19;99.9;;;;;;;;;
2021/06/09 01:08:59;;;;;;;27.45;22.23;;;19;99.9;;;;;;;;;
2021/06/09 01:09:01;;;;;;;27.45;22.23;;;19;99.9;;;;;;;;;
2021/06/09 01:09:09;;;;;;;27.45;22.23;;;19;99.9;;;;;;;;;
2021/06/09 01:09:14;;;;;;;27.45;22.23;;;19;99.9;;;;;;;;;
2021/06/09 01:09:29;;;;;;;26.73;23.08;;;19;99.9;;;;;;;;;
2021/06/09 01:09:40;;;;;;;26.73;23.08;;;19;99.9;;;;;;;;;
2021/06/09 01:09:55;;;;;;;26.73;23.08;;;19;99.9;;;;;;;;;
2021/06/09 01:10:02;;;;;;;26.73;23.08;;;19;99.9;;;;;;;;;
2021/06/09 01:10:05;;;;;;;26.73;23.08;;;19;99.9;;;;;;;;;
2021/06/09 01:10:15;;;;;;;26.73;23.08;;;19;99.9;;;;;;;;;
2021/06/09 01:10:31;;;;;;;26.08;22.08;;;19;99.9;;;;;;;;;
2021/06/09 01:10:41;;;;;;;26.08;22.08;;;19;99.9;;;;;;;;;
2021/06/09 01:10:56;;;;;;;26.08;22.08;;;19;99.9;;;;;;;;;
2021/06/09 01:11:04;;;;;;;26.08;22.08;;;19;99.9;;;;;;;;;
2021/06/09 01:11:12;;;;;;;26.08;22.08;;;19;99.9;;;;;;;;;
2021/06/09 01:11:12;;;;;;;26.08;22.08;;;19;99.9;;;;;;;;;
2021/06/09 01:11:27;;;;;;;26.08;22.08;;;19;99.9;;;;;;;;;
2021/06/09 01:11:42;;;;;;;24.23;21.35;;;19;99.9;;;;;;;;;
2021/06/09 01:11:53;;;;;;;24.23;21.35;;;19;99.9;;;;;;;;;
2021/06/09 01:12:02;;;;;;;24.23;21.35;;;19;99.9;;;;;;;;;
2021/06/09 01:12:08;;;;;;;24.23;21.35;;;19;99.9;;;;;;;;;
2021/06/09 01:12:18;;;;;;;24.23;21.35;;;19;99.9;;;;;;;;;
2021/06/09 01:12:34;;;;;;;23.7;21.27;;;19;99.9;;;;;;;;;
2021/06/09 01:12:45;;;;;;;23.7;21.27;;;19;99.9;;;;;;;;;
2021/06/09 01:12:54;;;;;;;23.7;21.27;;;19;99.9;;;;;;;;;
2021/06/09 01:13:02;;;;;;;23.7;21.27;;;19;99.9;;;;;;;;;
2021/06/09 01:13:10;;;;;;;23.7;21.27;;;19;99.9;;;;;;;;;
2021/06/09 01:13:15;;;;;;;23.7;21.27;;;19;99.9;;;;;;;;;
2021/06/09 01:13:26;;;;;;;23.7;21.27;;;19;99.9;;;;;;;;;
2021/06/09 01:13:40;;;;;;;25.13;22.45;;;19;99.9;;;;;;;;;
2021/06/09 01:13:56;;;;;;;25.13;22.45;;;19;99.9;;;;;;;;;
2021/06/09 01:14:01;;;;;;;25.13;22.45;;;19;99.9;;;;;;;;;
2021/06/09 01:14:06;;;;;;;25.13;22.45;;;19;99.9;;;;;;;;;